KWRB/WRB METAR and TAF weather

Enter ICAO airport designator
Station Type Date Time Source
KWRB METAR 2021/05/10 01:56 UTC NOAA

KWRB 100156Z 18008KT 10SM SCT050 BKN065 26/17 A2997 RMK AO2A SLP149 T02580174


Station Type Date Time Source
KWRB Decoded METAR 2021/05/10 01:56 UTC NOAA

Warner Robins Air Force Base, GA, United States (KWRB) 32-38N 083-36W
May 09, 2021 - 09:56 PM EDT / 2021.05.10 0156 UTC
Wind: from the S (180 degrees) at 9 MPH (8 KT):0
Visibility: 10 mile(s):0
Sky conditions: mostly cloudy
Temperature: 78.4 F (25.8 C)
Dew Point: 63.3 F (17.4 C)
Relative Humidity: 59%
Pressure (altimeter): 29.97 in. Hg (1014 hPa)
ob: KWRB 100156Z 18008KT 10SM SCT050 BKN065 26/17 A2997 RMK AO2A SLP149 T02580174
cycle: 2

Station Type Date Time Source
KWRB TAF 2021/05/10 00:03 UTC NOAA

TAF KWRB 100000Z 1000/1106 21010G20KT 9999 FEW060 BKN250 QNH2991INS
BECMG 1000/1001 21009KT 9999 FEW060 BKN250 QNH2992INS
BECMG 1011/1012 23012KT 8000 -SHRA BKN040 QNH2998INS
BECMG 1017/1018 24010G20KT 9999 NSW BKN050 QNH2997INS
BECMG 1020/1021 24009KT 9999 BKN030 QNH2997INS
BECMG 1101/1102 24006KT 9999 BKN015 QNH3000INS TX28/1000Z TN16/1008Z

Example: see airport list